Time;durP1;ratioP1;P1;durP2;ratioP2;P2;SDS_P1;SDS_P2;PMS_P1;PMS_P2;Temp;Humidity;BMP_temperature;BMP_pressure;BME280_temperature;BME280_humidity;BME280_pressure;Samples;Min_cycle;Max_cycle;Signal;HPM_P1;HPM_P2
2023/05/16 00:00:18;;;;;;;47.72;28.63;;;9.40;99.90;;;;;;5042625;28;20041;-91
2023/05/16 00:02:57;;;;;;;50.53;30.95;;;9.40;99.90;;;;;;5045263;28;20048;-91
2023/05/16 00:05:22;;;;;;;55.17;31.55;;;9.50;99.90;;;;;;5038523;28;20034;-91
2023/05/16 00:07:48;;;;;;;57.25;32.60;;;9.50;99.90;;;;;;5043607;28;20088;-91
2023/05/16 00:10:53;;;;;;;57.20;33.75;;;9.50;99.90;;;;;;5026369;28;20076;-91
2023/05/16 00:13:25;;;;;;;56.28;34.10;;;9.60;99.90;;;;;;5042053;28;20029;-90
2023/05/16 00:16:01;;;;;;;;;;;9.60;99.90;;;;;;5044817;28;20037;-91
2023/05/16 00:18:27;;;;;;;58.83;34.47;;;9.80;99.90;;;;;;5026195;28;20254;-90
2023/05/16 00:20:53;;;;;;;57.63;34.95;;;9.90;99.90;;;;;;5038589;28;20033;-91
2023/05/16 00:23:19;;;;;;;54.50;33.13;;;9.90;99.90;;;;;;5028715;28;20025;-92
2023/05/16 00:25:46;;;;;;;51.58;32.70;;;10.00;99.90;;;;;;5036157;28;20390;-91
2023/05/16 00:28:11;;;;;;;57.08;33.05;;;10.00;99.90;;;;;;5029341;28;20489;-91
2023/05/16 00:30:37;;;;;;;55.72;31.58;;;10.10;99.90;;;;;;5030769;28;20030;-92
2023/05/16 00:33:03;;;;;;;55.53;32.33;;;10.10;99.90;;;;;;5043698;28;20362;-91
2023/05/16 00:35:28;;;;;;;53.95;33.13;;;10.10;99.90;;;;;;5034438;28;20034;-91
2023/05/16 00:37:55;;;;;;;61.40;33.50;;;10.10;99.90;;;;;;5037769;28;20025;-91
2023/05/16 00:40:20;;;;;;;59.33;34.13;;;10.10;99.90;;;;;;5033694;28;20026;-91
2023/05/16 00:42:46;;;;;;;58.35;34.85;;;10.10;99.90;;;;;;5027205;28;20029;-91
2023/05/16 00:45:12;;;;;;;58.10;33.08;;;10.00;99.90;;;;;;5025897;28;20084;-90
2023/05/16 00:47:37;;;;;;;60.63;33.63;;;10.00;99.90;;;;;;5028917;28;20037;-92
2023/05/16 00:50:17;;;;;;;69.40;37.33;;;10.00;99.90;;;;;;5025834;28;20026;-91
2023/05/16 00:52:44;;;;;;;70.95;37.72;;;10.00;99.90;;;;;;5026909;28;20057;-91
2023/05/16 00:55:10;;;;;;;64.57;36.95;;;10.00;99.90;;;;;;5025631;28;20045;-91
2023/05/16 00:57:37;;;;;;;66.72;37.67;;;10.00;99.90;;;;;;5023839;28;20071;-90
2023/05/16 01:00:05;;;;;;;72.13;37.80;;;10.00;99.90;;;;;;5025998;28;20033;-89
2023/05/16 01:02:33;;;;;;;68.22;38.60;;;10.00;99.90;;;;;;5026388;28;20032;-89
2023/05/16 01:04:59;;;;;;;69.15;39.47;;;9.90;99.90;;;;;;5018757;28;20481;-91
2023/05/16 01:07:25;;;;;;;65.30;38.05;;;10.00;99.90;;;;;;5033483;28;20488;-90
2023/05/16 01:09:51;;;;;;;72.78;37.45;;;9.90;99.90;;;;;;5034796;28;20030;-91
2023/05/16 01:12:27;;;;;;;71.63;37.97;;;9.90;99.90;;;;;;5040495;28;20029;-90
2023/05/16 01:23:10;;;;;;;69.65;37.90;;;9.80;99.90;;;;;;5032657;28;20531;-90
2023/05/16 01:25:38;;;;;;;79.63;40.78;;;9.80;99.90;;;;;;5033905;28;20069;-91
2023/05/16 01:28:06;;;;;;;79.28;40.45;;;9.70;99.90;;;;;;5033909;28;20025;-91
2023/05/16 01:30:39;;;;;;;78.50;40.47;;;9.70;99.90;;;;;;5036471;28;20030;-91
2023/05/16 01:33:07;;;;;;;74.93;41.28;;;9.70;99.90;;;;;;5035331;28;20037;-90
2023/05/16 01:35:38;;;;;;;77.90;39.97;;;9.70;99.90;;;;;;5032624;28;20029;-91
2023/05/16 01:38:15;;;;;;;78.43;41.13;;;9.70;99.90;;;;;;5025444;28;20026;-91
2023/05/16 01:40:56;;;;;;;80.80;39.42;;;9.70;99.90;;;;;;5015817;28;20432;-92
2023/05/16 01:43:36;;;;;;;82.22;41.10;;;9.70;99.90;;;;;;5038059;28;20525;-89
2023/05/16 01:46:14;;;;;;;75.82;39.45;;;9.70;99.90;;;;;;5023231;28;20041;-92
2023/05/16 01:48:57;;;;;;;81.60;42.05;;;9.70;99.90;;;;;;5025385;28;20119;-92
2023/05/16 01:51:26;;;;;;;82.25;41.25;;;9.60;99.90;;;;;;5033310;28;20061;-91
2023/05/16 01:53:56;;;;;;;82.30;42.50;;;9.60;99.90;;;;;;5026270;28;20499;-92
2023/05/16 01:56:22;;;;;;;88.45;44.28;;;9.60;99.90;;;;;;5043908;28;20056;-91
2023/05/16 01:58:50;;;;;;;93.32;42.25;;;9.50;99.90;;;;;;5025550;28;20025;-91
2023/05/16 02:01:16;;;;;;;85.57;42.53;;;9.50;99.90;;;;;;5004169;28;20117;-92
2023/05/16 02:03:41;;;;;;;85.05;43.10;;;9.50;99.90;;;;;;5026365;28;20056;-91
2023/05/16 02:06:07;;;;;;;88.95;43.83;;;9.40;99.90;;;;;;5024550;28;20061;-92
2023/05/16 02:08:33;;;;;;;93.05;45.90;;;9.40;99.90;;;;;;5019733;28;20018;-91
2023/05/16 02:10:58;;;;;;;104.25;47.80;;;9.40;99.90;;;;;;5024945;28;20030;-91
2023/05/16 02:13:24;;;;;;;90.53;45.05;;;9.30;99.90;;;;;;5021310;28;20037;-91
2023/05/16 02:15:51;;;;;;;100.78;46.83;;;9.40;99.90;;;;;;5024815;28;20029;-91
2023/05/16 02:18:18;;;;;;;97.32;47.72;;;9.40;99.90;;;;;;5022410;28;20017;-91
2023/05/16 02:20:44;;;;;;;89.82;46.17;;;9.40;99.90;;;;;;5019306;28;20096;-91
2023/05/16 02:23:09;;;;;;;95.32;45.05;;;9.40;99.90;;;;;;5024220;28;20025;-91
2023/05/16 02:25:48;;;;;;;99.40;46.28;;;9.30;99.90;;;;;;5038061;28;20037;-92
2023/05/16 02:28:13;;;;;;;100.05;48.50;;;9.30;99.90;;;;;;5043281;28;20595;-89
2023/05/16 02:30:40;;;;;;;100.20;46.58;;;9.30;99.90;;;;;;5036393;28;20061;-91
2023/05/16 02:33:05;;;;;;;100.07;48.00;;;9.30;99.90;;;;;;5033530;28;20057;-91
2023/05/16 02:35:31;;;;;;;92.88;45.53;;;9.40;99.90;;;;;;5028410;28;20053;-92
2023/05/16 02:37:59;;;;;;;106.13;46.88;;;9.40;99.90;;;;;;5025949;28;20758;-91
2023/05/16 02:40:24;;;;;;;98.05;48.17;;;9.40;99.90;;;;;;5027883;28;20018;-90
2023/05/16 02:42:50;;;;;;;98.40;46.97;;;9.40;99.90;;;;;;5030817;28;20049;-91
2023/05/16 02:45:16;;;;;;;101.20;48.63;;;9.40;99.90;;;;;;5021882;28;20026;-91
2023/05/16 02:47:49;;;;;;;105.82;49.55;;;9.40;99.90;;;;;;5021073;28;20037;-90
2023/05/16 02:50:15;;;;;;;107.68;49.20;;;9.30;99.90;;;;;;5032017;28;20034;-91
2023/05/16 02:52:40;;;;;;;107.72;49.03;;;9.30;99.90;;;;;;5022738;28;20018;-91
2023/05/16 02:55:07;;;;;;;103.50;48.17;;;9.30;99.90;;;;;;5032481;28;20048;-92
2023/05/16 02:57:32;;;;;;;105.72;50.40;;;9.30;99.90;;;;;;5025598;28;20415;-91
2023/05/16 02:59:58;;;;;;;109.22;51.85;;;9.30;99.90;;;;;;5034496;28;20065;-91
2023/05/16 03:02:24;;;;;;;109.35;50.75;;;9.30;99.90;;;;;;5037698;28;20053;-90
2023/05/16 03:04:49;;;;;;;108.93;51.50;;;9.30;99.90;;;;;;5044986;28;20030;-92
2023/05/16 03:11:02;;;;;;;111.18;50.08;;;9.30;99.90;;;;;;5028667;28;20032;-90
2023/05/16 03:13:29;;;;;;;105.40;48.58;;;9.30;99.90;;;;;;5035229;28;20124;-90
2023/05/16 03:15:57;;;;;;;;;;;9.30;99.90;;;;;;5031897;28;20030;-92
2023/05/16 03:18:23;;;;;;;;;;;9.30;99.90;;;;;;5022179;28;20045;-91
2023/05/16 03:20:48;;;;;;;;;;;9.30;99.90;;;;;;5034625;28;19999;-90
2023/05/16 03:23:14;;;;;;;;;;;9.30;99.90;;;;;;5023923;28;19939;-91
2023/05/16 03:25:42;;;;;;;;;;;9.30;99.90;;;;;;5037115;28;19909;-90
2023/05/16 03:28:07;;;;;;;;;;;9.40;99.90;;;;;;5021773;28;19913;-92
2023/05/16 03:30:33;;;;;;;;;;;9.40;99.90;;;;;;5047710;28;19996;-92
2023/05/16 03:36:27;;;;;;;;;;;9.40;99.90;;;;;;5036509;28;24062;-91
2023/05/16 03:38:53;;;;;;;;;;;9.40;99.90;;;;;;5035330;28;20357;-91
2023/05/16 03:41:19;;;;;;;;;;;9.40;99.90;;;;;;5041586;28;19915;-90
2023/05/16 03:43:45;;;;;;;;;;;9.40;99.90;;;;;;5014363;28;19909;-90
2023/05/16 03:46:11;;;;;;;;;;;9.40;99.90;;;;;;5039474;28;19910;-91
2023/05/16 03:48:37;;;;;;;;;;;9.40;99.90;;;;;;5019027;28;20341;-91
2023/05/16 03:51:02;;;;;;;;;;;9.40;99.90;;;;;;5046827;28;20637;-91
2023/05/16 03:53:28;;;;;;;;;;;9.40;99.90;;;;;;5022247;28;19925;-91
2023/05/16 03:55:53;;;;;;;;;;;9.40;99.90;;;;;;5035848;28;19925;-90
2023/05/16 03:58:19;;;;;;;;;;;9.50;99.90;;;;;;5022574;28;19909;-91
2023/05/16 04:00:45;;;;;;;;;;;9.40;99.90;;;;;;5032602;28;19992;-90
2023/05/16 04:03:11;;;;;;;;;;;9.40;99.90;;;;;;5014228;28;19916;-91
2023/05/16 04:05:36;;;;;;;;;;;9.40;99.90;;;;;;5042898;28;19913;-90
2023/05/16 04:08:02;;;;;;;;;;;9.40;99.90;;;;;;5018783;28;20011;-90
2023/05/16 04:10:28;;;;;;;;;;;9.40;99.90;;;;;;5026726;28;19936;-91
2023/05/16 04:12:53;;;;;;;;;;;9.40;99.90;;;;;;5014548;28;19916;-91
2023/05/16 04:15:19;;;;;;;;;;;9.40;99.90;;;;;;5027431;28;19914;-90
2023/05/16 04:17:45;;;;;;;;;;;9.40;99.90;;;;;;5021270;28;24091;-90
2023/05/16 04:20:11;;;;;;;;;;;9.40;99.90;;;;;;5022929;28;19916;-91
2023/05/16 04:22:36;;;;;;;;;;;9.40;99.90;;;;;;5029483;28;19958;-91
2023/05/16 04:25:33;;;;;;;;;;;9.30;99.90;;;;;;5016852;28;19960;-90
2023/05/16 04:27:58;;;;;;;;;;;9.30;99.90;;;;;;5029705;28;19909;-90
2023/05/16 04:30:24;;;;;;;;;;;9.20;99.90;;;;;;5021993;28;20407;-91
2023/05/16 04:32:50;;;;;;;;;;;9.20;99.90;;;;;;5046430;28;19935;-90
2023/05/16 04:35:16;;;;;;;;;;;9.10;99.90;;;;;;5020912;28;19913;-88
2023/05/16 04:37:41;;;;;;;;;;;9.10;99.90;;;;;;5019871;28;20280;-89
2023/05/16 04:40:08;;;;;;;;;;;9.10;99.90;;;;;;5018330;28;25152;-88
2023/05/16 04:42:34;;;;;;;;;;;9.00;99.90;;;;;;5015665;28;20276;-87
2023/05/16 04:45:00;;;;;;;;;;;9.00;99.90;;;;;;5027858;28;19913;-87
2023/05/16 04:47:25;;;;;;;;;;;8.90;99.90;;;;;;5020347;28;19925;-87
2023/05/16 04:49:52;;;;;;;;;;;8.90;99.90;;;;;;5018439;28;19956;-88
2023/05/16 04:52:17;;;;;;;;;;;8.90;99.90;;;;;;5029878;28;19964;-89
2023/05/16 04:54:43;;;;;;;;;;;8.80;99.90;;;;;;5044609;28;19972;-89
2023/05/16 04:57:11;;;;;;;;;;;8.80;99.90;;;;;;5040230;28;19909;-89
2023/05/16 04:59:37;;;;;;;;;;;8.90;99.90;;;;;;5028989;28;20455;-88
2023/05/16 05:02:03;;;;;;;;;;;8.90;99.90;;;;;;5035106;28;24073;-88
2023/05/16 05:04:41;;;;;;;;;;;8.90;99.90;;;;;;5036029;28;20309;-88
2023/05/16 05:07:07;;;;;;;;;;;8.80;99.90;;;;;;5032666;28;19914;-88
2023/05/16 05:09:32;;;;;;;;;;;8.80;99.90;;;;;;5031683;28;19925;-88
2023/05/16 05:11:58;;;;;;;;;;;8.90;99.90;;;;;;5032956;28;19916;-89
2023/05/16 05:14:23;;;;;;;;;;;8.90;99.90;;;;;;5024493;28;19909;-89
2023/05/16 05:16:49;;;;;;;;;;;8.90;99.90;;;;;;5033233;28;20359;-89
2023/05/16 05:19:14;;;;;;;;;;;8.90;99.90;;;;;;5017321;28;19910;-89
2023/05/16 05:21:40;;;;;;;;;;;9.00;99.90;;;;;;5023234;28;19916;-88
2023/05/16 05:24:06;;;;;;;;;;;9.00;99.90;;;;;;5024269;28;24076;-89
2023/05/16 05:26:31;;;;;;;;;;;9.00;99.90;;;;;;5024557;28;19909;-88
2023/05/16 05:28:57;;;;;;;;;;;9.00;99.90;;;;;;5004642;28;20507;-89
2023/05/16 05:31:23;;;;;;;;;;;9.00;99.90;;;;;;5038671;28;19909;-89
2023/05/16 05:33:48;;;;;;;;;;;9.00;99.90;;;;;;5018893;28;20327;-89
2023/05/16 05:36:15;;;;;;;;;;;9.10;99.90;;;;;;5022346;28;19913;-90
2023/05/16 05:38:40;;;;;;;;;;;9.10;99.90;;;;;;5031548;28;19909;-89
2023/05/16 05:41:13;;;;;;;;;;;9.20;99.90;;;;;;5011919;28;19967;-90
2023/05/16 05:43:38;;;;;;;;;;;9.20;99.90;;;;;;5016075;28;19910;-89
2023/05/16 05:46:04;;;;;;;;;;;9.30;99.90;;;;;;5009564;28;19916;-89
2023/05/16 05:48:31;;;;;;;;;;;9.30;99.90;;;;;;5023107;28;20618;-89
2023/05/16 05:50:56;;;;;;;;;;;9.40;99.90;;;;;;5020163;28;24083;-89
2023/05/16 05:53:22;;;;;;;;;;;9.30;99.90;;;;;;5024278;28;20276;-89
2023/05/16 05:55:48;;;;;;;;;;;9.30;99.90;;;;;;5020492;28;19953;-89
2023/05/16 05:58:13;;;;;;;;;;;9.30;99.90;;;;;;5032810;28;20333;-89
2023/05/16 06:00:39;;;;;;;;;;;9.30;99.90;;;;;;5025912;28;19909;-89
2023/05/16 06:03:05;;;;;;;;;;;9.30;99.90;;;;;;5018207;28;19910;-90
2023/05/16 06:05:30;;;;;;;;;;;9.30;99.90;;;;;;5022042;28;20383;-90
2023/05/16 06:07:56;;;;;;;;;;;9.30;99.90;;;;;;5030056;28;20388;-89
2023/05/16 06:10:22;;;;;;;;;;;9.30;99.90;;;;;;5005529;28;24137;-89
2023/05/16 06:12:47;;;;;;;;;;;9.30;99.90;;;;;;5002929;28;19952;-88
2023/05/16 06:15:13;;;;;;;;;;;9.30;99.90;;;;;;5002979;28;19913;-89
2023/05/16 06:17:38;;;;;;;;;;;9.20;99.90;;;;;;5032460;28;19913;-88
2023/05/16 06:20:04;;;;;;;;;;;9.30;99.90;;;;;;5022157;28;20349;-88
2023/05/16 06:22:30;;;;;;;;;;;9.30;99.90;;;;;;5027452;28;19909;-88
2023/05/16 06:24:55;;;;;;;;;;;9.30;99.90;;;;;;5024423;28;19909;-88
2023/05/16 06:27:21;;;;;;;;;;;9.20;99.90;;;;;;5021360;28;19996;-90
2023/05/16 06:29:47;;;;;;;;;;;9.30;99.90;;;;;;5027252;28;19913;-89
2023/05/16 06:32:13;;;;;;;;;;;9.30;99.90;;;;;;5034897;28;19913;-88
2023/05/16 06:34:39;;;;;;;;;;;9.30;99.90;;;;;;5049578;28;19947;-88
2023/05/16 06:37:05;;;;;;;;;;;9.30;99.90;;;;;;5015983;28;19909;-89
2023/05/16 06:39:31;;;;;;;;;;;9.50;99.90;;;;;;5026896;28;20629;-88
2023/05/16 06:41:57;;;;;;;;;;;9.50;99.90;;;;;;5034235;28;19916;-88
2023/05/16 06:44:23;;;;;;;;;;;9.60;99.90;;;;;;5034241;28;19909;-89
2023/05/16 06:46:48;;;;;;;;;;;9.70;99.90;;;;;;5028332;28;20412;-88
2023/05/16 06:49:14;;;;;;;;;;;9.80;99.90;;;;;;5025231;28;19915;-89
2023/05/16 06:51:39;;;;;;;;;;;9.90;99.90;;;;;;5026519;28;20348;-88
2023/05/16 06:54:05;;;;;;;;;;;9.90;99.90;;;;;;5032449;28;19917;-89
2023/05/16 06:56:31;;;;;;;;;;;10.00;99.90;;;;;;5050443;28;20265;-88
2023/05/16 06:58:57;;;;;;;;;;;10.10;99.90;;;;;;5031035;28;19913;-89
2023/05/16 07:01:22;;;;;;;;;;;10.10;99.90;;;;;;5032792;28;20386;-88
2023/05/16 07:03:48;;;;;;;;;;;10.00;99.90;;;;;;5035107;28;19913;-88
2023/05/16 07:06:14;;;;;;;;;;;10.10;99.90;;;;;;5023561;28;20274;-87
2023/05/16 07:08:40;;;;;;;;;;;10.00;99.90;;;;;;5024953;28;19927;-89
2023/05/16 07:11:05;;;;;;;;;;;10.10;99.90;;;;;;5029946;28;20000;-88
2023/05/16 07:13:31;;;;;;;;;;;10.20;99.90;;;;;;5002481;28;20264;-88
2023/05/16 07:15:56;;;;;;;;;;;10.30;99.90;;;;;;5023971;28;19914;-88
2023/05/16 07:18:22;;;;;;;;;;;10.30;99.90;;;;;;5016981;28;20348;-89
2023/05/16 07:20:48;;;;;;;;;;;10.40;99.90;;;;;;5048713;28;19924;-88
2023/05/16 07:23:14;;;;;;;;;;;10.40;99.90;;;;;;5039652;28;19916;-88
2023/05/16 07:25:40;;;;;;;;;;;10.30;99.90;;;;;;5026712;28;19909;-88
2023/05/16 07:28:05;;;;;;;;;;;10.20;99.90;;;;;;5007193;28;19965;-88
2023/05/16 07:30:31;;;;;;;;;;;10.30;99.90;;;;;;5042018;28;19937;-88
2023/05/16 07:32:57;;;;;;;;;;;10.40;99.90;;;;;;5030587;28;19914;-89
2023/05/16 07:35:22;;;;;;;;;;;10.40;99.90;;;;;;5025067;28;20360;-89
2023/05/16 07:37:48;;;;;;;;;;;10.30;99.90;;;;;;5030490;28;19920;-89
2023/05/16 07:40:16;;;;;;;;;;;10.20;99.90;;;;;;5025812;28;19952;-89
2023/05/16 07:42:43;;;;;;;;;;;10.10;99.90;;;;;;5018838;28;19957;-88
2023/05/16 07:45:08;;;;;;;;;;;10.20;99.90;;;;;;5031496;28;20379;-89
2023/05/16 07:47:34;;;;;;;;;;;10.20;99.90;;;;;;5046430;28;19909;-88
2023/05/16 07:50:00;;;;;;;;;;;10.30;99.90;;;;;;5028927;28;19909;-88
2023/05/16 07:52:26;;;;;;;;;;;10.40;99.90;;;;;;5032886;28;19909;-87
2023/05/16 07:54:52;;;;;;;;;;;10.40;99.90;;;;;;5026087;28;19963;-88
2023/05/16 07:57:18;;;;;;;;;;;10.40;99.90;;;;;;5041197;28;19967;-89
2023/05/16 07:59:43;;;;;;;;;;;10.60;99.90;;;;;;5027236;28;19940;-88
2023/05/16 08:02:10;;;;;;;;;;;10.50;99.90;;;;;;5039076;28;19909;-88
2023/05/16 08:04:36;;;;;;;;;;;10.50;99.90;;;;;;5020131;28;19916;-89
2023/05/16 08:07:02;;;;;;;;;;;10.30;99.90;;;;;;5046533;28;19952;-89
2023/05/16 08:09:27;;;;;;;;;;;10.20;99.90;;;;;;5009032;28;19924;-90
2023/05/16 08:11:53;;;;;;;;;;;10.10;99.90;;;;;;5033367;28;20046;-90
2023/05/16 08:14:19;;;;;;;;;;;10.10;99.90;;;;;;5020227;28;20273;-90
2023/05/16 08:16:45;;;;;;;;;;;10.00;99.90;;;;;;5014497;28;19945;-90
2023/05/16 08:19:10;;;;;;;;;;;10.00;99.90;;;;;;5026545;28;20411;-90
2023/05/16 08:21:36;;;;;;;;;;;10.10;99.90;;;;;;5015230;28;19909;-91
2023/05/16 08:24:04;;;;;;;;;;;10.00;99.90;;;;;;5028376;28;19909;-90
2023/05/16 08:26:29;;;;;;;;;;;10.10;99.90;;;;;;5039803;28;19913;-90
2023/05/16 08:28:55;;;;;;;;;;;10.20;99.90;;;;;;5021380;28;19916;-88
2023/05/16 08:31:21;;;;;;;;;;;10.40;99.90;;;;;;5018907;28;20008;-89
2023/05/16 08:33:46;;;;;;;;;;;10.40;99.90;;;;;;5022038;28;20395;-90
2023/05/16 08:36:12;;;;;;;;;;;10.40;99.90;;;;;;5038297;28;19920;-90
2023/05/16 08:38:37;;;;;;;;;;;10.40;99.90;;;;;;5037130;28;20337;-89
2023/05/16 08:41:12;;;;;;;;;;;10.40;99.90;;;;;;5035626;28;19913;-90
2023/05/16 08:43:38;;;;;;;;;;;10.40;99.90;;;;;;5025810;28;19913;-90
2023/05/16 08:46:05;;;;;;;;;;;10.20;99.90;;;;;;5022821;28;19912;-90
2023/05/16 08:48:31;;;;;;;;;;;10.10;99.90;;;;;;5025142;28;19944;-89
2023/05/16 08:50:57;;;;;;;;;;;10.10;99.90;;;;;;5035316;28;19909;-90
2023/05/16 08:53:40;;;;;;;;;;;10.00;99.90;;;;;;5018150;28;19932;-90
2023/05/16 08:56:06;;;;;;;;;;;9.90;99.90;;;;;;5050533;28;19949;-90
2023/05/16 08:58:56;;;;;;;;;;;9.80;99.90;;;;;;5019451;28;19967;-90
2023/05/16 09:01:22;;;;;;;;;;;9.80;99.90;;;;;;5036635;28;19909;-90
2023/05/16 09:03:48;;;;;;;;;;;9.60;99.90;;;;;;5037334;28;19920;-89
2023/05/16 09:06:15;;;;;;;;;;;9.40;99.90;;;;;;5048417;28;20276;-90
2023/05/16 09:08:40;;;;;;;;;;;9.40;99.90;;;;;;5024912;28;19959;-90
2023/05/16 09:11:07;;;;;;;;;;;9.50;99.90;;;;;;5036229;28;20300;-89
2023/05/16 09:13:32;;;;;;;;;;;9.50;99.90;;;;;;5036712;28;20360;-90
2023/05/16 09:16:11;;;;;;;;;;;9.50;99.90;;;;;;5036363;28;19963;-90
2023/05/16 09:18:38;;;;;;;;;;;9.50;99.90;;;;;;5029749;28;19932;-89
2023/05/16 09:21:10;;;;;;;;;;;9.30;99.90;;;;;;5036391;28;19909;-89
2023/05/16 09:23:35;;;;;;;;;;;9.20;99.90;;;;;;5031538;28;19932;-89
2023/05/16 09:26:14;;;;;;;;;;;9.20;99.90;;;;;;5024584;28;19910;-89
2023/05/16 09:28:39;;;;;;;;;;;9.10;99.90;;;;;;5020834;28;20000;-90
2023/05/16 09:31:31;;;;;;;;;;;8.90;99.90;;;;;;5026008;28;19956;-90
2023/05/16 09:33:57;;;;;;;;;;;8.90;99.90;;;;;;5036177;28;20364;-90
2023/05/16 09:36:22;;;;;;;;;;;8.80;99.90;;;;;;5048342;28;19920;-89
2023/05/16 09:38:51;;;;;;;;;;;8.80;99.90;;;;;;5041218;28;19905;-89
2023/05/16 09:41:17;;;;;;;;;;;8.90;99.90;;;;;;5017807;28;19909;-90
2023/05/16 09:43:43;;;;;;;;;;;9.00;99.90;;;;;;5032034;28;20415;-89
2023/05/16 09:46:15;;;;;;;;;;;9.30;99.90;;;;;;5029011;28;19916;-90
2023/05/16 09:48:45;;;;;;;;;;;9.70;99.90;;;;;;5020911;28;19924;-89
2023/05/16 09:51:11;;;;;;;;;;;10.20;99.90;;;;;;5018007;28;19991;-90
2023/05/16 09:53:37;;;;;;;;;;;10.60;99.90;;;;;;5035496;28;19909;-90
2023/05/16 09:56:04;;;;;;;;;;;10.60;99.90;;;;;;5027731;28;19913;-90
2023/05/16 09:58:30;;;;;;;;;;;10.60;99.90;;;;;;5022089;28;20349;-90
2023/05/16 10:00:56;;;;;;;;;;;10.80;99.90;;;;;;5015891;28;20328;-91
2023/05/16 10:03:23;;;;;;;;;;;11.20;99.90;;;;;;5051743;28;19909;-90
2023/05/16 10:05:49;;;;;;;;;;;11.50;99.90;;;;;;5035298;28;19913;-90
2023/05/16 10:08:15;;;;;;;;;;;11.70;99.90;;;;;;5026438;28;20256;-90
2023/05/16 10:10:41;;;;;;;;;;;11.80;99.90;;;;;;5034899;28;19971;-91
2023/05/16 10:13:07;;;;;;;;;;;12.00;99.90;;;;;;5040001;28;19909;-90
2023/05/16 10:16:10;;;;;;;;;;;12.00;99.90;;;;;;5034018;28;19917;-91
2023/05/16 10:18:37;;;;;;;;;;;11.80;99.90;;;;;;5034334;28;19989;-90
2023/05/16 10:21:10;;;;;;;;;;;11.20;99.90;;;;;;5051184;28;19909;-90
2023/05/16 10:23:37;;;;;;;;;;;10.50;99.90;;;;;;5022101;28;20578;-90
2023/05/16 10:26:04;;;;;;;;;;;10.20;99.90;;;;;;5035009;28;19909;-91
2023/05/16 10:28:30;;;;;;;;;;;9.90;99.90;;;;;;5028582;28;19909;-90
2023/05/16 10:30:56;;;;;;;;;;;9.60;99.90;;;;;;5034569;28;19916;-90
2023/05/16 10:33:21;;;;;;;;;;;9.30;99.90;;;;;;5034886;28;19950;-91
2023/05/16 10:35:47;;;;;;;;;;;9.30;99.90;;;;;;5044895;28;19936;-91
2023/05/16 10:38:15;;;;;;;;;;;9.30;99.90;;;;;;5039285;28;19990;-91
2023/05/16 10:40:41;;;;;;;;;;;9.50;99.90;;;;;;5034901;28;20336;-90
2023/05/16 10:43:07;;;;;;;;;;;9.40;99.90;;;;;;5033185;28;19944;-91
2023/05/16 10:45:34;;;;;;;;;;;9.60;99.90;;;;;;5017732;28;20288;-91
2023/05/16 10:48:03;;;;;;;;;;;9.80;99.90;;;;;;5034815;28;20370;-90
2023/05/16 10:50:44;;;;;;;;;;;10.40;99.90;;;;;;5035150;28;19920;-91
2023/05/16 10:53:16;;;;;;;;;;;10.90;99.90;;;;;;5034571;28;19909;-90
2023/05/16 10:55:57;;;;;;;;;;;11.30;99.90;;;;;;5016570;28;19975;-91
2023/05/16 10:58:24;;;;;;;;;;;11.30;99.90;;;;;;5034670;28;19959;-91
2023/05/16 11:01:10;;;;;;;;;;;11.20;99.90;;;;;;5022857;28;19909;-91
2023/05/16 11:03:35;;;;;;;;;;;11.10;99.90;;;;;;5005639;28;19909;-90
2023/05/16 11:06:01;;;;;;;;;;;11.50;99.90;;;;;;5041060;28;20284;-91
2023/05/16 11:08:27;;;;;;;;;;;11.10;99.90;;;;;;5035565;28;20375;-90
2023/05/16 11:11:12;;;;;;;;;;;11.10;99.90;;;;;;5028539;28;19909;-91
2023/05/16 11:13:54;;;;;;;;;;;11.00;99.90;;;;;;5032817;28;20365;-91
2023/05/16 11:16:26;;;;;;;;;;;10.80;99.90;;;;;;5041595;28;19913;-91
2023/05/16 11:18:52;;;;;;;;;;;10.60;99.90;;;;;;5027534;28;19909;-90
2023/05/16 11:21:17;;;;;;;;;;;10.70;99.90;;;;;;5029909;28;19932;-91
2023/05/16 11:23:43;;;;;;;;;;;10.70;99.90;;;;;;5034372;28;19948;-91
2023/05/16 11:26:09;;;;;;;;;;;11.00;99.90;;;;;;5046296;28;19909;-92
2023/05/16 11:28:34;;;;;;;;;;;11.60;99.90;;;;;;5034951;28;20000;-91
2023/05/16 11:31:03;;;;;;;;;;;12.00;99.90;;;;;;5035539;28;19908;-90
2023/05/16 11:33:33;;;;;;;;;;;12.50;99.90;;;;;;5041287;28;19944;-91
2023/05/16 11:36:05;;;;;;;;;;;12.90;99.90;;;;;;5032391;28;19956;-91
2023/05/16 11:38:31;;;;;;;;;;;12.60;99.90;;;;;;5017910;28;19920;-91
2023/05/16 11:41:04;;;;;;;;;;;12.30;99.90;;;;;;5026520;28;19909;-91
2023/05/16 11:43:45;;;;;;;;;;;12.20;99.90;;;;;;5028960;28;20383;-91
2023/05/16 11:46:11;;;;;;;;;;;12.00;99.90;;;;;;5028479;28;19910;-90
2023/05/16 11:48:59;;;;;;;;;;;12.10;99.90;;;;;;5017192;28;25147;-90
2023/05/16 11:51:25;;;;;;;;;;;12.50;99.90;;;;;;5015870;28;20276;-90
2023/05/16 11:53:51;;;;;;;;;;;12.30;99.90;;;;;;5046720;28;19905;-92
2023/05/16 11:56:17;;;;;;;;;;;12.50;99.90;;;;;;5031615;28;19959;-91
2023/05/16 11:58:43;;;;;;;;;;;12.90;99.90;;;;;;5019075;28;19955;-91
2023/05/16 12:01:09;;;;;;;;;;;13.40;99.90;;;;;;5025226;28;19910;-91
2023/05/16 12:03:35;;;;;;;;;;;14.10;99.90;;;;;;5015191;28;19913;-92
2023/05/16 12:06:04;;;;;;;;;;;14.40;99.90;;;;;;5023156;28;19909;-89
2023/05/16 12:08:30;;;;;;;;;;;14.70;99.90;;;;;;5040065;28;19924;-89
2023/05/16 12:10:55;;;;;;;;;;;15.00;99.90;;;;;;5045943;28;19909;-90
2023/05/16 12:13:22;;;;;;;;;;;14.70;99.90;;;;;;5045388;28;19932;-90
2023/05/16 12:15:48;;;;;;;;;;;14.60;99.90;;;;;;5021691;28;20256;-91
2023/05/16 12:18:14;;;;;;;;;;;14.60;99.90;;;;;;5046602;28;19916;-90
2023/05/16 12:20:41;;;;;;;;;;;15.00;99.90;;;;;;5022970;28;20106;-90
2023/05/16 12:23:11;;;;;;;;;;;15.30;99.90;;;;;;5022900;28;19894;-90
2023/05/16 12:25:42;;;;;;;;;;;15.40;99.90;;;;;;5010007;28;19948;-90
2023/05/16 12:28:08;;;;;;;;;;;15.40;99.90;;;;;;5017102;28;19941;-90
2023/05/16 12:30:34;;;;;;;;;;;15.20;99.90;;;;;;5027896;28;19909;-91
2023/05/16 12:33:08;;;;;;;;;;;15.20;99.90;;;;;;5039239;28;20411;-90
2023/05/16 12:35:34;;;;;;;;;;;15.40;99.90;;;;;;5012412;28;20427;-90
2023/05/16 12:38:03;;;;;;;;;;;15.70;99.90;;;;;;5011025;28;20272;-90
2023/05/16 12:40:28;;;;;;;;;;;15.20;99.90;;;;;;5029512;28;21185;-89
2023/05/16 12:42:54;;;;;;;;;;;14.90;99.90;;;;;;5023292;28;19910;-90
2023/05/16 12:49:00;;;;;;;;;;;15.20;99.90;;;;;;5015138;28;19917;-91
2023/05/16 12:51:28;;;;;;;;;;;15.10;99.90;;;;;;5024024;28;20773;-91
2023/05/16 12:53:54;;;;;;;;;;;14.80;99.90;;;;;;5042051;28;19909;-91
2023/05/16 12:56:20;;;;;;;;;;;14.80;99.90;;;;;;5007122;28;20051;-90
2023/05/16 12:58:50;;;;;;;;;;;15.20;99.90;;;;;;5029715;28;20395;-91
2023/05/16 13:01:15;;;;;;;;;;;15.50;99.90;;;;;;5047430;28;19917;-89
2023/05/16 13:03:41;;;;;;;;;;;15.50;99.90;;;;;;5025910;28;19905;-91
2023/05/16 13:06:09;;;;;;;;;;;15.40;99.90;;;;;;5025326;28;20040;-90
2023/05/16 13:08:35;;;;;;;;;;;15.40;99.90;;;;;;5027986;28;19909;-87
2023/05/16 13:11:01;;;;;;;;;;;15.10;99.90;;;;;;5045878;28;19917;-89
2023/05/16 13:13:26;;;;;;;;;;;14.80;99.90;;;;;;5027192;28;24079;-90
2023/05/16 13:15:52;;;;;;;;;;;14.50;99.90;;;;;;5032315;28;19917;-90
2023/05/16 13:18:18;;;;;;;;;;;13.70;99.90;;;;;;5030711;28;19984;-91
2023/05/16 13:20:43;;;;;;;;;;;14.10;99.90;;;;;;5022808;28;19914;-90
2023/05/16 13:23:09;;;;;;;;;;;14.50;99.90;;;;;;5030752;28;19897;-90
2023/05/16 13:25:35;;;;;;;;;;;14.30;99.90;;;;;;5028947;28;20049;-90
2023/05/16 13:28:03;;;;;;;;;;;13.60;99.90;;;;;;5033993;28;20368;-90
2023/05/16 13:30:29;;;;;;;;;;;13.00;99.90;;;;;;5014607;28;19909;-90
2023/05/16 13:32:55;;;;;;;;;;;13.20;99.90;;;;;;5026966;28;24081;-89
2023/05/16 13:35:21;;;;;;;;;;;13.50;99.90;;;;;;5027272;28;19971;-90
2023/05/16 13:37:46;;;;;;;;;;;13.70;99.90;;;;;;5036842;28;19909;-91
2023/05/16 13:40:12;;;;;;;;;;;13.90;99.90;;;;;;5016973;28;19916;-91
2023/05/16 13:42:38;;;;;;;;;;;14.10;99.90;;;;;;5023077;28;19913;-90
2023/05/16 13:45:04;;;;;;;;;;;14.20;99.90;;;;;;5024864;28;19916;-91
2023/05/16 13:47:31;;;;;;;;;;;14.50;99.90;;;;;;5030129;28;19968;-91
2023/05/16 13:49:57;;;;;;;;;;;14.50;99.90;;;;;;5016322;28;19910;-89
2023/05/16 13:52:23;;;;;;;;;;;14.40;99.90;;;;;;5026663;28;24060;-89
2023/05/16 13:54:50;;;;;;;;;;;14.20;99.90;;;;;;5036835;28;19917;-89
2023/05/16 13:57:16;;;;;;;;;;;13.70;99.90;;;;;;5035059;28;24119;-89
2023/05/16 13:59:42;;;;;;;;;;;13.30;99.90;;;;;;5035126;28;19948;-89
2023/05/16 14:02:07;;;;;;;;;;;12.80;99.90;;;;;;5035366;28;20039;-90
2023/05/16 14:04:33;;;;;;;;;;;12.50;99.90;;;;;;5031906;28;19923;-90
2023/05/16 14:06:59;;;;;;;;;;;12.30;99.90;;;;;;5037188;28;20035;-89
2023/05/16 14:09:24;;;;;;;;;;;12.20;99.90;;;;;;5026818;28;19910;-89
2023/05/16 14:11:50;;;;;;;;;;;12.30;99.90;;;;;;5034817;28;19909;-90
2023/05/16 14:14:16;;;;;;;;;;;12.30;99.90;;;;;;5027210;28;20332;-89
2023/05/16 14:16:45;;;;;;;;;;;12.50;99.90;;;;;;5033128;28;19917;-90